sensor_id;sensor_type;location;lat;lon;timestamp;pressure;altitude;pressure_sealevel;temperature;humidity
82375;BME280;72005;50.496;15.798;2024-01-15T00:02:05;93841.91;;;-1.72;94.15
82375;BME280;72005;50.496;15.798;2024-01-15T00:04:35;93831.25;;;-1.76;93.94
82375;BME280;72005;50.496;15.798;2024-01-15T00:07:01;93826.13;;;-1.76;94.06
82375;BME280;72005;50.496;15.798;2024-01-15T00:09:27;93820.06;;;-1.70;94.50
82375;BME280;72005;50.496;15.798;2024-01-15T00:11:53;93823.34;;;-1.74;94.12
82375;BME280;72005;50.496;15.798;2024-01-15T00:14:18;93818.19;;;-1.74;94.04
82375;BME280;72005;50.496;15.798;2024-01-15T00:16:45;93810.66;;;-1.76;94.16
82375;BME280;72005;50.496;15.798;2024-01-15T00:19:12;93805.66;;;-1.71;94.10
82375;BME280;72005;50.496;15.798;2024-01-15T00:21:37;93794.78;;;-1.73;93.98
82375;BME280;72005;50.496;15.798;2024-01-15T00:24:03;93787.97;;;-1.79;93.90
82375;BME280;72005;50.496;15.798;2024-01-15T00:26:29;93772.31;;;-1.77;94.47
82375;BME280;72005;50.496;15.798;2024-01-15T00:28:55;93777.47;;;-1.77;94.43
82375;BME280;72005;50.496;15.798;2024-01-15T00:31:20;93774.13;;;-1.78;94.31
82375;BME280;72005;50.496;15.798;2024-01-15T00:33:46;93775.78;;;-1.72;94.55
82375;BME280;72005;50.496;15.798;2024-01-15T00:36:12;93770.53;;;-1.77;94.27
82375;BME280;72005;50.496;15.798;2024-01-15T00:38:38;93762.91;;;-1.84;94.48
82375;BME280;72005;50.496;15.798;2024-01-15T00:41:03;93759.34;;;-1.83;94.15
82375;BME280;72005;50.496;15.798;2024-01-15T00:43:29;93762.47;;;-1.80;94.51
82375;BME280;72005;50.496;15.798;2024-01-15T00:45:55;93758.31;;;-1.82;94.56
82375;BME280;72005;50.496;15.798;2024-01-15T00:48:20;93754.19;;;-1.83;94.21
82375;BME280;72005;50.496;15.798;2024-01-15T00:50:46;93753.41;;;-1.83;94.10
82375;BME280;72005;50.496;15.798;2024-01-15T00:53:12;93760.88;;;-1.82;94.52
82375;BME280;72005;50.496;15.798;2024-01-15T00:55:37;93754.75;;;-1.80;94.05
82375;BME280;72005;50.496;15.798;2024-01-15T00:58:03;93766.47;;;-1.85;94.32
82375;BME280;72005;50.496;15.798;2024-01-15T01:00:29;93757.78;;;-1.84;94.28
82375;BME280;72005;50.496;15.798;2024-01-15T01:02:55;93767.06;;;-1.83;94.26
82375;BME280;72005;50.496;15.798;2024-01-15T01:05:20;93754.63;;;-1.86;93.76
82375;BME280;72005;50.496;15.798;2024-01-15T01:07:46;93752.50;;;-1.89;94.18
82375;BME280;72005;50.496;15.798;2024-01-15T01:10:12;93751.50;;;-1.88;94.11
82375;BME280;72005;50.496;15.798;2024-01-15T01:12:38;93750.28;;;-1.85;94.61
82375;BME280;72005;50.496;15.798;2024-01-15T01:15:03;93748.25;;;-1.83;94.49
82375;BME280;72005;50.496;15.798;2024-01-15T01:17:29;93743.56;;;-1.86;94.48
82375;BME280;72005;50.496;15.798;2024-01-15T01:19:56;93739.19;;;-1.86;93.97
82375;BME280;72005;50.496;15.798;2024-01-15T01:22:22;93733.28;;;-1.86;94.48
82375;BME280;72005;50.496;15.798;2024-01-15T01:24:47;93733.47;;;-1.88;93.86
82375;BME280;72005;50.496;15.798;2024-01-15T01:27:13;93732.50;;;-1.87;94.02
82375;BME280;72005;50.496;15.798;2024-01-15T01:29:38;93723.75;;;-1.86;94.29
82375;BME280;72005;50.496;15.798;2024-01-15T01:32:04;93715.94;;;-1.91;93.98
82375;BME280;72005;50.496;15.798;2024-01-15T01:34:32;93731.69;;;-1.87;94.07
82375;BME280;72005;50.496;15.798;2024-01-15T01:36:58;93718.75;;;-1.92;93.79
82375;BME280;72005;50.496;15.798;2024-01-15T01:39:24;93714.59;;;-1.93;93.85
82375;BME280;72005;50.496;15.798;2024-01-15T01:41:49;93721.84;;;-1.90;93.82
82375;BME280;72005;50.496;15.798;2024-01-15T01:44:15;93719.53;;;-1.92;94.12
82375;BME280;72005;50.496;15.798;2024-01-15T01:46:41;93714.03;;;-1.95;93.65
82375;BME280;72005;50.496;15.798;2024-01-15T01:49:08;93708.53;;;-1.99;93.87
82375;BME280;72005;50.496;15.798;2024-01-15T01:51:35;93694.00;;;-2.05;93.85
82375;BME280;72005;50.496;15.798;2024-01-15T01:54:01;93690.78;;;-2.00;93.84
82375;BME280;72005;50.496;15.798;2024-01-15T01:56:27;93678.03;;;-2.07;93.69
82375;BME280;72005;50.496;15.798;2024-01-15T01:58:53;93681.59;;;-2.08;94.11
82375;BME280;72005;50.496;15.798;2024-01-15T02:01:19;93668.16;;;-2.10;93.82
82375;BME280;72005;50.496;15.798;2024-01-15T02:03:45;93658.44;;;-2.08;93.99
82375;BME280;72005;50.496;15.798;2024-01-15T02:06:11;93651.88;;;-2.04;93.96
82375;BME280;72005;50.496;15.798;2024-01-15T02:08:37;93644.50;;;-2.12;93.52
82375;BME280;72005;50.496;15.798;2024-01-15T02:11:03;93651.19;;;-2.11;93.64
82375;BME280;72005;50.496;15.798;2024-01-15T02:13:29;93686.09;;;-2.15;93.55
82375;BME280;72005;50.496;15.798;2024-01-15T02:15:55;93689.09;;;-2.18;93.56
82375;BME280;72005;50.496;15.798;2024-01-15T02:18:20;93681.16;;;-2.17;93.72
82375;BME280;72005;50.496;15.798;2024-01-15T02:20:46;93678.38;;;-2.15;94.15
82375;BME280;72005;50.496;15.798;2024-01-15T02:23:15;93675.00;;;-2.16;93.96
82375;BME280;72005;50.496;15.798;2024-01-15T02:25:45;93671.75;;;-2.11;93.69
82375;BME280;72005;50.496;15.798;2024-01-15T02:28:15;93666.06;;;-2.13;93.82
82375;BME280;72005;50.496;15.798;2024-01-15T02:30:42;93665.50;;;-2.15;93.68
82375;BME280;72005;50.496;15.798;2024-01-15T02:33:09;93653.44;;;-2.15;93.71
82375;BME280;72005;50.496;15.798;2024-01-15T02:35:36;93662.94;;;-2.15;93.87
82375;BME280;72005;50.496;15.798;2024-01-15T02:38:05;93658.69;;;-2.10;93.87
82375;BME280;72005;50.496;15.798;2024-01-15T02:40:31;93663.03;;;-2.10;93.66
82375;BME280;72005;50.496;15.798;2024-01-15T02:42:57;93660.25;;;-2.09;93.72
82375;BME280;72005;50.496;15.798;2024-01-15T02:45:23;93656.13;;;-2.10;93.66
82375;BME280;72005;50.496;15.798;2024-01-15T02:47:49;93647.84;;;-2.12;93.95
82375;BME280;72005;50.496;15.798;2024-01-15T02:50:16;93652.22;;;-2.12;93.81
82375;BME280;72005;50.496;15.798;2024-01-15T02:52:42;93642.91;;;-2.13;93.72
82375;BME280;72005;50.496;15.798;2024-01-15T02:55:08;93635.66;;;-2.16;93.70
82375;BME280;72005;50.496;15.798;2024-01-15T02:57:34;93640.00;;;-2.17;93.95
82375;BME280;72005;50.496;15.798;2024-01-15T03:00:00;93629.41;;;-2.20;93.79
82375;BME280;72005;50.496;15.798;2024-01-15T03:02:25;93636.53;;;-2.22;93.99
82375;BME280;72005;50.496;15.798;2024-01-15T03:04:51;93632.19;;;-2.22;93.96
82375;BME280;72005;50.496;15.798;2024-01-15T03:07:18;93635.97;;;-2.24;93.70
82375;BME280;72005;50.496;15.798;2024-01-15T03:09:44;93624.91;;;-2.25;94.22
82375;BME280;72005;50.496;15.798;2024-01-15T03:12:09;93630.06;;;-2.25;94.09
82375;BME280;72005;50.496;15.798;2024-01-15T03:14:36;93624.72;;;-2.23;94.37
82375;BME280;72005;50.496;15.798;2024-01-15T03:17:02;93632.53;;;-2.18;94.24
82375;BME280;72005;50.496;15.798;2024-01-15T03:19:28;93635.00;;;-2.23;93.94
82375;BME280;72005;50.496;15.798;2024-01-15T03:21:53;93631.28;;;-2.28;94.22
82375;BME280;72005;50.496;15.798;2024-01-15T03:24:20;93635.19;;;-2.25;93.99
82375;BME280;72005;50.496;15.798;2024-01-15T03:26:46;93625.94;;;-2.26;94.45
82375;BME280;72005;50.496;15.798;2024-01-15T03:29:11;93631.41;;;-2.22;93.86
82375;BME280;72005;50.496;15.798;2024-01-15T03:31:37;93627.03;;;-2.22;93.96
82375;BME280;72005;50.496;15.798;2024-01-15T03:34:03;93614.19;;;-2.34;93.98
82375;BME280;72005;50.496;15.798;2024-01-15T03:36:29;93612.97;;;-2.31;94.17
82375;BME280;72005;50.496;15.798;2024-01-15T03:38:54;93615.09;;;-2.28;94.11
82375;BME280;72005;50.496;15.798;2024-01-15T03:41:20;93620.69;;;-2.31;93.80
82375;BME280;72005;50.496;15.798;2024-01-15T03:43:46;93616.56;;;-2.32;93.94
82375;BME280;72005;50.496;15.798;2024-01-15T03:46:11;93615.78;;;-2.33;94.32
82375;BME280;72005;50.496;15.798;2024-01-15T03:48:38;93626.06;;;-2.33;94.22
82375;BME280;72005;50.496;15.798;2024-01-15T03:51:04;93615.78;;;-2.33;93.66
82375;BME280;72005;50.496;15.798;2024-01-15T03:53:29;93617.31;;;-2.32;94.04
82375;BME280;72005;50.496;15.798;2024-01-15T03:55:55;93621.38;;;-2.36;94.25
82375;BME280;72005;50.496;15.798;2024-01-15T03:58:21;93623.47;;;-2.33;94.14
82375;BME280;72005;50.496;15.798;2024-01-15T04:00:46;93626.72;;;-2.37;93.90
82375;BME280;72005;50.496;15.798;2024-01-15T04:03:12;93631.41;;;-2.34;93.98
82375;BME280;72005;50.496;15.798;2024-01-15T04:05:38;93631.41;;;-2.34;93.83
82375;BME280;72005;50.496;15.798;2024-01-15T04:08:04;93631.66;;;-2.36;94.02
82375;BME280;72005;50.496;15.798;2024-01-15T04:10:30;93633.53;;;-2.31;94.27
82375;BME280;72005;50.496;15.798;2024-01-15T04:12:56;93618.88;;;-2.31;94.14
82375;BME280;72005;50.496;15.798;2024-01-15T04:15:21;93622.91;;;-2.35;94.29
82375;BME280;72005;50.496;15.798;2024-01-15T04:17:47;93626.06;;;-2.33;94.29
82375;BME280;72005;50.496;15.798;2024-01-15T04:20:12;93611.41;;;-2.32;94.39
82375;BME280;72005;50.496;15.798;2024-01-15T04:22:38;93622.59;;;-2.27;94.05
82375;BME280;72005;50.496;15.798;2024-01-15T04:25:04;93629.28;;;-2.25;93.92
82375;BME280;72005;50.496;15.798;2024-01-15T04:27:30;93616.75;;;-2.34;94.08
82375;BME280;72005;50.496;15.798;2024-01-15T04:29:56;93623.03;;;-2.30;93.96
82375;BME280;72005;50.496;15.798;2024-01-15T04:32:22;93619.69;;;-2.30;93.70
82375;BME280;72005;50.496;15.798;2024-01-15T04:34:47;93604.47;;;-2.32;93.78
82375;BME280;72005;50.496;15.798;2024-01-15T04:37:14;93622.03;;;-2.29;93.64
82375;BME280;72005;50.496;15.798;2024-01-15T04:39:39;93618.66;;;-2.29;93.84
82375;BME280;72005;50.496;15.798;2024-01-15T04:42:05;93615.31;;;-2.30;93.82
82375;BME280;72005;50.496;15.798;2024-01-15T04:44:30;93614.97;;;-2.33;93.66
82375;BME280;72005;50.496;15.798;2024-01-15T04:46:56;93608.59;;;-2.31;93.63
82375;BME280;72005;50.496;15.798;2024-01-15T04:49:22;93610.06;;;-2.35;94.20
82375;BME280;72005;50.496;15.798;2024-01-15T04:51:48;93588.38;;;-2.27;93.99
82375;BME280;72005;50.496;15.798;2024-01-15T04:54:13;93591.06;;;-2.34;93.78
82375;BME280;72005;50.496;15.798;2024-01-15T04:56:43;93594.63;;;-2.35;93.80
82375;BME280;72005;50.496;15.798;2024-01-15T04:59:10;93588.94;;;-2.37;93.75
82375;BME280;72005;50.496;15.798;2024-01-15T05:01:36;93580.13;;;-2.41;94.00
82375;BME280;72005;50.496;15.798;2024-01-15T05:04:01;93582.69;;;-2.41;93.80
82375;BME280;72005;50.496;15.798;2024-01-15T05:06:28;93578.78;;;-2.43;93.73
82375;BME280;72005;50.496;15.798;2024-01-15T05:08:53;93583.47;;;-2.40;93.65
82375;BME280;72005;50.496;15.798;2024-01-15T05:11:19;93587.06;;;-2.41;93.82
82375;BME280;72005;50.496;15.798;2024-01-15T05:13:45;93594.41;;;-2.45;93.54
82375;BME280;72005;50.496;15.798;2024-01-15T05:16:10;93584.25;;;-2.40;93.44
82375;BME280;72005;50.496;15.798;2024-01-15T05:18:36;93589.94;;;-2.38;93.48
82375;BME280;72005;50.496;15.798;2024-01-15T05:21:03;93580.56;;;-2.44;93.60
82375;BME280;72005;50.496;15.798;2024-01-15T05:23:31;93579.00;;;-2.45;93.96
82375;BME280;72005;50.496;15.798;2024-01-15T05:25:56;93590.28;;;-2.46;93.83
82375;BME280;72005;50.496;15.798;2024-01-15T05:28:22;93585.16;;;-2.46;93.65
82375;BME280;72005;50.496;15.798;2024-01-15T05:30:48;93581.22;;;-2.48;93.95
82375;BME280;72005;50.496;15.798;2024-01-15T05:33:16;93582.38;;;-2.44;93.94
82375;BME280;72005;50.496;15.798;2024-01-15T05:35:42;93587.16;;;-2.48;94.04
82375;BME280;72005;50.496;15.798;2024-01-15T05:38:07;93587.38;;;-2.50;93.91
82375;BME280;72005;50.496;15.798;2024-01-15T05:40:33;93588.03;;;-2.54;93.82
82375;BME280;72005;50.496;15.798;2024-01-15T05:42:59;93577.31;;;-2.51;94.47
82375;BME280;72005;50.496;15.798;2024-01-15T05:45:26;93593.88;;;-2.59;94.14
82375;BME280;72005;50.496;15.798;2024-01-15T05:47:52;93593.63;;;-2.57;93.78
82375;BME280;72005;50.496;15.798;2024-01-15T05:50:17;93596.78;;;-2.55;94.06
82375;BME280;72005;50.496;15.798;2024-01-15T05:52:43;93603.59;;;-2.61;94.02
82375;BME280;72005;50.496;15.798;2024-01-15T05:55:09;93608.47;;;-2.59;94.40
82375;BME280;72005;50.496;15.798;2024-01-15T05:57:35;93609.28;;;-2.59;94.53
82375;BME280;72005;50.496;15.798;2024-01-15T06:00:03;93603.59;;;-2.61;94.68
82375;BME280;72005;50.496;15.798;2024-01-15T06:02:28;93606.03;;;-2.66;94.75
82375;BME280;72005;50.496;15.798;2024-01-15T06:04:54;93606.34;;;-2.62;94.80
82375;BME280;72005;50.496;15.798;2024-01-15T06:07:20;93608.84;;;-2.67;94.85
82375;BME280;72005;50.496;15.798;2024-01-15T06:09:45;93615.66;;;-2.61;94.42
82375;BME280;72005;50.496;15.798;2024-01-15T06:12:11;93614.97;;;-2.68;94.69
82375;BME280;72005;50.496;15.798;2024-01-15T06:14:37;93622.09;;;-2.70;94.69
82375;BME280;72005;50.496;15.798;2024-01-15T06:17:02;93619.13;;;-2.67;95.02
82375;BME280;72005;50.496;15.798;2024-01-15T06:19:28;93618.22;;;-2.61;94.90
82375;BME280;72005;50.496;15.798;2024-01-15T06:21:54;93628.59;;;-2.68;94.75
82375;BME280;72005;50.496;15.798;2024-01-15T06:24:20;93621.00;;;-2.63;95.01
82375;BME280;72005;50.496;15.798;2024-01-15T06:26:48;93631.97;;;-2.67;94.52
82375;BME280;72005;50.496;15.798;2024-01-15T06:29:14;93634.53;;;-2.67;94.56
82375;BME280;72005;50.496;15.798;2024-01-15T06:31:39;93645.13;;;-2.64;94.91
82375;BME280;72005;50.496;15.798;2024-01-15T06:34:05;93643.34;;;-2.63;94.52
82375;BME280;72005;50.496;15.798;2024-01-15T06:36:30;93642.78;;;-2.65;94.44
82375;BME280;72005;50.496;15.798;2024-01-15T06:38:56;93641.22;;;-2.66;94.96
82375;BME280;72005;50.496;15.798;2024-01-15T06:41:22;93649.50;;;-2.64;94.87
82375;BME280;72005;50.496;15.798;2024-01-15T06:43:48;93643.34;;;-2.63;94.97
82375;BME280;72005;50.496;15.798;2024-01-15T06:46:20;93652.97;;;-2.59;94.37
82375;BME280;72005;50.496;15.798;2024-01-15T06:48:46;93650.59;;;-2.60;94.73
82375;BME280;72005;50.496;15.798;2024-01-15T06:51:12;93654.28;;;-2.56;94.62
82375;BME280;72005;50.496;15.798;2024-01-15T06:53:38;93645.91;;;-2.63;94.20
82375;BME280;72005;50.496;15.798;2024-01-15T06:56:03;93647.47;;;-2.62;94.35
82375;BME280;72005;50.496;15.798;2024-01-15T06:58:32;93651.72;;;-2.56;94.61
82375;BME280;72005;50.496;15.798;2024-01-15T07:00:58;93655.75;;;-2.60;94.44
82375;BME280;72005;50.496;15.798;2024-01-15T07:03:24;93640.91;;;-2.58;94.30
82375;BME280;72005;50.496;15.798;2024-01-15T07:05:49;93645.47;;;-2.60;94.15
82375;BME280;72005;50.496;15.798;2024-01-15T07:08:15;93642.47;;;-2.57;94.15
82375;BME280;72005;50.496;15.798;2024-01-15T07:10:41;93649.06;;;-2.61;94.24
82375;BME280;72005;50.496;15.798;2024-01-15T07:13:07;93652.28;;;-2.66;94.01
82375;BME280;72005;50.496;15.798;2024-01-15T07:15:32;93650.72;;;-2.67;93.93
82375;BME280;72005;50.496;15.798;2024-01-15T07:17:58;93655.09;;;-2.67;94.04
82375;BME280;72005;50.496;15.798;2024-01-15T07:20:24;93652.28;;;-2.66;94.25
82375;BME280;72005;50.496;15.798;2024-01-15T07:22:49;93663.00;;;-2.57;94.20
82375;BME280;72005;50.496;15.798;2024-01-15T07:25:16;93666.28;;;-2.50;93.94
82375;BME280;72005;50.496;15.798;2024-01-15T07:27:41;93667.50;;;-2.53;94.29
82375;BME280;72005;50.496;15.798;2024-01-15T07:30:11;93665.47;;;-2.51;93.98
82375;BME280;72005;50.496;15.798;2024-01-15T07:32:37;93664.81;;;-2.46;94.14
82375;BME280;72005;50.496;15.798;2024-01-15T07:35:03;93677.09;;;-2.48;93.89
82375;BME280;72005;50.496;15.798;2024-01-15T07:37:29;93671.19;;;-2.48;93.60
82375;BME280;72005;50.496;15.798;2024-01-15T07:39:55;93674.97;;;-2.51;93.80
82375;BME280;72005;50.496;15.798;2024-01-15T07:42:20;93667.94;;;-2.56;93.58
82375;BME280;72005;50.496;15.798;2024-01-15T07:44:46;93679.00;;;-2.55;93.99
82375;BME280;72005;50.496;15.798;2024-01-15T07:47:12;93680.34;;;-2.53;94.18
82375;BME280;72005;50.496;15.798;2024-01-15T07:49:38;93678.56;;;-2.52;94.28
82375;BME280;72005;50.496;15.798;2024-01-15T07:52:04;93671.97;;;-2.48;94.10
82375;BME280;72005;50.496;15.798;2024-01-15T07:54:31;93677.22;;;-2.43;93.52
82375;BME280;72005;50.496;15.798;2024-01-15T07:56:58;93678.44;;;-2.45;93.71
82375;BME280;72005;50.496;15.798;2024-01-15T07:59:24;93684.81;;;-2.48;93.57
82375;BME280;72005;50.496;15.798;2024-01-15T08:01:51;93677.88;;;-2.47;93.66
82375;BME280;72005;50.496;15.798;2024-01-15T08:04:17;93683.59;;;-2.45;93.20
82375;BME280;72005;50.496;15.798;2024-01-15T08:06:43;93697.97;;;-2.56;93.08
82375;BME280;72005;50.496;15.798;2024-01-15T08:09:08;93702.69;;;-2.53;93.04
82375;BME280;72005;50.496;15.798;2024-01-15T08:11:35;93700.78;;;-2.58;93.06
82375;BME280;72005;50.496;15.798;2024-01-15T08:14:01;93706.13;;;-2.59;93.00
82375;BME280;72005;50.496;15.798;2024-01-15T08:16:27;93692.81;;;-2.68;93.05
82375;BME280;72005;50.496;15.798;2024-01-15T08:18:53;93700.88;;;-2.64;93.20
82375;BME280;72005;50.496;15.798;2024-01-15T08:21:19;93691.59;;;-2.65;93.31
82375;BME280;72005;50.496;15.798;2024-01-15T08:23:45;93698.75;;;-2.67;93.48
82375;BME280;72005;50.496;15.798;2024-01-15T08:26:11;93695.75;;;-2.64;93.12
82375;BME280;72005;50.496;15.798;2024-01-15T08:28:36;93700.34;;;-2.55;93.40
82375;BME280;72005;50.496;15.798;2024-01-15T08:31:02;93692.84;;;-2.56;92.83
82375;BME280;72005;50.496;15.798;2024-01-15T08:33:28;93681.00;;;-2.57;92.78
82375;BME280;72005;50.496;15.798;2024-01-15T08:35:55;93687.16;;;-2.58;92.77
82375;BME280;72005;50.496;15.798;2024-01-15T08:38:20;93677.22;;;-2.55;92.59
82375;BME280;72005;50.496;15.798;2024-01-15T08:40:46;93673.75;;;-2.48;92.81
82375;BME280;72005;50.496;15.798;2024-01-15T08:43:12;93672.72;;;-2.47;92.85
82375;BME280;72005;50.496;15.798;2024-01-15T08:45:38;93670.72;;;-2.45;92.57
82375;BME280;72005;50.496;15.798;2024-01-15T08:48:04;93666.50;;;-2.40;92.59
82375;BME280;72005;50.496;15.798;2024-01-15T08:50:31;93658.91;;;-2.35;92.23
82375;BME280;72005;50.496;15.798;2024-01-15T08:52:57;93654.44;;;-2.28;92.26
82375;BME280;72005;50.496;15.798;2024-01-15T08:55:23;93652.41;;;-2.25;92.03
82375;BME280;72005;50.496;15.798;2024-01-15T08:57:49;93666.50;;;-2.16;91.99
82375;BME280;72005;50.496;15.798;2024-01-15T09:00:15;93667.63;;;-2.12;91.62
82375;BME280;72005;50.496;15.798;2024-01-15T09:02:42;93678.13;;;-2.02;91.10
82375;BME280;72005;50.496;15.798;2024-01-15T09:05:08;93662.03;;;-1.97;91.20
82375;BME280;72005;50.496;15.798;2024-01-15T09:07:33;93674.13;;;-1.98;90.76
82375;BME280;72005;50.496;15.798;2024-01-15T09:09:59;93671.22;;;-1.90;91.02
82375;BME280;72005;50.496;15.798;2024-01-15T09:12:25;93678.66;;;-1.76;90.70
82375;BME280;72005;50.496;15.798;2024-01-15T09:14:51;93673.41;;;-1.82;90.22
82375;BME280;72005;50.496;15.798;2024-01-15T09:17:19;93681.38;;;-1.83;89.92
82375;BME280;72005;50.496;15.798;2024-01-15T09:19:45;93686.66;;;-1.90;90.34
82375;BME280;72005;50.496;15.798;2024-01-15T09:22:12;93696.56;;;-1.93;89.96
82375;BME280;72005;50.496;15.798;2024-01-15T09:24:40;93700.16;;;-1.94;90.01
82375;BME280;72005;50.496;15.798;2024-01-15T09:27:07;93702.28;;;-2.03;89.76
82375;BME280;72005;50.496;15.798;2024-01-15T09:29:33;93704.28;;;-2.05;89.78
82375;BME280;72005;50.496;15.798;2024-01-15T09:31:58;93709.44;;;-2.05;90.13
82375;BME280;72005;50.496;15.798;2024-01-15T09:34:24;93705.44;;;-2.01;89.54
82375;BME280;72005;50.496;15.798;2024-01-15T09:36:50;93711.69;;;-1.97;89.67
82375;BME280;72005;50.496;15.798;2024-01-15T09:39:15;93700.03;;;-1.88;89.76
82375;BME280;72005;50.496;15.798;2024-01-15T09:41:41;93693.66;;;-1.85;89.61
82375;BME280;72005;50.496;15.798;2024-01-15T09:44:08;93703.06;;;-1.79;89.41
82375;BME280;72005;50.496;15.798;2024-01-15T09:46:34;93694.69;;;-1.74;89.68
82375;BME280;72005;50.496;15.798;2024-01-15T09:49:00;93688.63;;;-1.68;89.37
82375;BME280;72005;50.496;15.798;2024-01-15T09:51:31;93696.78;;;-1.71;88.96
82375;BME280;72005;50.496;15.798;2024-01-15T09:53:58;93694.00;;;-1.82;89.11
82375;BME280;72005;50.496;15.798;2024-01-15T09:56:24;93693.91;;;-1.75;89.23
82375;BME280;72005;50.496;15.798;2024-01-15T09:58:50;93689.97;;;-1.77;89.34
82375;BME280;72005;50.496;15.798;2024-01-15T10:01:20;93680.78;;;-1.73;89.33
82375;BME280;72005;50.496;15.798;2024-01-15T10:03:46;93680.00;;;-1.74;89.12
82375;BME280;72005;50.496;15.798;2024-01-15T10:06:15;93681.34;;;-1.71;88.70
82375;BME280;72005;50.496;15.798;2024-01-15T10:08:47;93679.25;;;-1.74;88.51
82375;BME280;72005;50.496;15.798;2024-01-15T10:11:13;93673.41;;;-1.82;89.14
82375;BME280;72005;50.496;15.798;2024-01-15T10:13:39;93672.41;;;-1.80;89.15
82375;BME280;72005;50.496;15.798;2024-01-15T10:16:05;93672.53;;;-1.75;89.14
82375;BME280;72005;50.496;15.798;2024-01-15T10:18:32;93677.69;;;-1.75;89.05
82375;BME280;72005;50.496;15.798;2024-01-15T10:20:58;93688.28;;;-1.72;88.56
82375;BME280;72005;50.496;15.798;2024-01-15T10:23:24;93681.91;;;-1.69;88.72
82375;BME280;72005;50.496;15.798;2024-01-15T10:25:49;93679.31;;;-1.57;88.94
82375;BME280;72005;50.496;15.798;2024-01-15T10:28:18;93672.28;;;-1.62;88.48
82375;BME280;72005;50.496;15.798;2024-01-15T10:30:44;93678.53;;;-1.58;88.68
82375;BME280;72005;50.496;15.798;2024-01-15T10:33:10;93670.59;;;-1.56;88.17
82375;BME280;72005;50.496;15.798;2024-01-15T10:35:38;93666.22;;;-1.56;88.41
82375;BME280;72005;50.496;15.798;2024-01-15T10:38:05;93660.28;;;-1.56;88.25
82375;BME280;72005;50.496;15.798;2024-01-15T10:40:31;93666.22;;;-1.56;88.47
82375;BME280;72005;50.496;15.798;2024-01-15T10:42:57;93661.72;;;-1.49;88.73
82375;BME280;72005;50.496;15.798;2024-01-15T10:45:23;93667.06;;;-1.39;88.55
82375;BME280;72005;50.496;15.798;2024-01-15T10:47:49;93656.31;;;-1.36;87.99
82375;BME280;72005;50.496;15.798;2024-01-15T10:50:15;93663.50;;;-1.38;87.65
82375;BME280;72005;50.496;15.798;2024-01-15T10:52:41;93665.50;;;-1.40;87.40
82375;BME280;72005;50.496;15.798;2024-01-15T10:55:08;93675.50;;;-1.43;87.46
82375;BME280;72005;50.496;15.798;2024-01-15T10:57:35;93672.13;;;-1.44;87.05
82375;BME280;72005;50.496;15.798;2024-01-15T11:00:02;93672.03;;;-1.49;86.73
82375;BME280;72005;50.496;15.798;2024-01-15T11:02:32;93679.00;;;-1.61;86.79
82375;BME280;72005;50.496;15.798;2024-01-15T11:05:00;93667.91;;;-1.62;87.21
82375;BME280;72005;50.496;15.798;2024-01-15T11:07:26;93666.34;;;-1.63;87.04
82375;BME280;72005;50.496;15.798;2024-01-15T11:09:52;93661.66;;;-1.66;87.01
82375;BME280;72005;50.496;15.798;2024-01-15T11:12:18;93659.66;;;-1.64;87.01
82375;BME280;72005;50.496;15.798;2024-01-15T11:14:48;93664.44;;;-1.67;87.36
82375;BME280;72005;50.496;15.798;2024-01-15T11:17:15;93646.53;;;-1.62;87.75
82375;BME280;72005;50.496;15.798;2024-01-15T11:24:56;93665.56;;;-1.63;87.33
82375;BME280;72005;50.496;15.798;2024-01-15T11:27:41;93655.84;;;-1.61;86.98
82375;BME280;72005;50.496;15.798;2024-01-15T11:30:08;93641.84;;;-1.65;86.93
82375;BME280;72005;50.496;15.798;2024-01-15T11:32:37;93648.34;;;-1.63;86.65
82375;BME280;72005;50.496;15.798;2024-01-15T11:35:07;93662.31;;;-1.59;86.98
82375;BME280;72005;50.496;15.798;2024-01-15T11:40:22;93652.09;;;-1.53;86.59
82375;BME280;72005;50.496;15.798;2024-01-15T11:42:49;93651.91;;;-1.52;86.33
82375;BME280;72005;50.496;15.798;2024-01-15T11:45:19;93655.81;;;-1.49;86.38
82375;BME280;72005;50.496;15.798;2024-01-15T11:50:45;93647.09;;;-1.60;86.35
82375;BME280;72005;50.496;15.798;2024-01-15T11:53:17;93654.13;;;-1.55;86.28
82375;BME280;72005;50.496;15.798;2024-01-15T11:55:45;93636.44;;;-1.52;86.63
82375;BME280;72005;50.496;15.798;2024-01-15T11:58:12;93636.00;;;-1.49;86.34
82375;BME280;72005;50.496;15.798;2024-01-15T12:00:42;93627.09;;;-1.41;86.02
82375;BME280;72005;50.496;15.798;2024-01-15T12:03:08;93631.59;;;-1.37;86.38
82375;BME280;72005;50.496;15.798;2024-01-15T12:05:37;93631.69;;;-1.31;86.12
82375;BME280;72005;50.496;15.798;2024-01-15T12:08:03;93632.78;;;-1.27;85.80
82375;BME280;72005;50.496;15.798;2024-01-15T12:10:29;93627.72;;;-1.22;86.40
82375;BME280;72005;50.496;15.798;2024-01-15T12:12:58;93636.63;;;-1.13;85.82
82375;BME280;72005;50.496;15.798;2024-01-15T12:15:25;93625.88;;;-1.10;85.90
82375;BME280;72005;50.496;15.798;2024-01-15T12:17:52;93629.69;;;-1.13;85.38
82375;BME280;72005;50.496;15.798;2024-01-15T12:20:18;93631.25;;;-1.11;85.02
82375;BME280;72005;50.496;15.798;2024-01-15T12:22:44;93621.66;;;-1.16;85.18
82375;BME280;72005;50.496;15.798;2024-01-15T12:25:10;93628.91;;;-1.13;85.59
82375;BME280;72005;50.496;15.798;2024-01-15T12:27:36;93617.81;;;-1.14;84.79
82375;BME280;72005;50.496;15.798;2024-01-15T12:30:02;93619.16;;;-1.11;85.05
82375;BME280;72005;50.496;15.798;2024-01-15T12:32:28;93617.41;;;-1.22;84.78
82375;BME280;72005;50.496;15.798;2024-01-15T12:34:54;93621.22;;;-1.25;85.19
82375;BME280;72005;50.496;15.798;2024-01-15T12:37:20;93622.56;;;-1.22;84.78
82375;BME280;72005;50.496;15.798;2024-01-15T12:39:46;93624.69;;;-1.19;85.28
82375;BME280;72005;50.496;15.798;2024-01-15T12:42:16;93624.94;;;-1.21;84.82
82375;BME280;72005;50.496;15.798;2024-01-15T12:44:42;93623.59;;;-1.23;84.68
82375;BME280;72005;50.496;15.798;2024-01-15T12:47:08;93624.94;;;-1.21;84.35
82375;BME280;72005;50.496;15.798;2024-01-15T12:49:38;93622.66;;;-1.17;84.39
82375;BME280;72005;50.496;15.798;2024-01-15T12:52:10;93627.81;;;-1.17;84.48
82375;BME280;72005;50.496;15.798;2024-01-15T12:54:36;93615.94;;;-1.18;84.59
82375;BME280;72005;50.496;15.798;2024-01-15T12:57:02;93612.91;;;-1.15;84.91